Blair, Oklahoma
Current Conditions -  °F | °C
As of 9:55 PM on Thursday 18 Dec 2014 (Local Time) from KAXS Reporting Station
Overcast Overcast  
Wind Chill: 37°   Ceiling: 900
Heat Index: 43°   Visibility: 7mi
Dew Point: 39°   Wind: 9mph
Humidity: 88%   Direction: 60°ENE
Pressure: 30.2"   Gusts: NA
Location:  34.78°N, 99.34°W
Report Text: KAXS 190355Z AUTO 06008KT 7SM BKN009 OVC020 06/04 A3020 RMK AO2 T00600041
Loading
Personal Weather Stations






























Interactive Weather Map New forecast layout! Learn more

10-Day Weather Forecast

Advertisements
Track Severe Weather on mobile